sensor_id;sensor_type;location;lat;lon;timestamp;P1;durP1;ratioP1;P2;durP2;ratioP2
27802;SDS011;15182;48.174;11.562;2022-08-01T00:00:44;2.47;;;2.47;;
27802;SDS011;15182;48.174;11.562;2022-08-01T00:03:15;2.40;;;2.40;;
27802;SDS011;15182;48.174;11.562;2022-08-01T00:05:47;3.33;;;2.60;;
27802;SDS011;15182;48.174;11.562;2022-08-01T00:08:20;2.00;;;2.00;;
27802;SDS011;15182;48.174;11.562;2022-08-01T00:10:51;2.63;;;2.42;;
27802;SDS011;15182;48.174;11.562;2022-08-01T00:13:23;2.35;;;2.30;;
27802;SDS011;15182;48.174;11.562;2022-08-01T00:15:54;2.40;;;2.40;;
27802;SDS011;15182;48.174;11.562;2022-08-01T00:18:26;2.30;;;2.20;;
27802;SDS011;15182;48.174;11.562;2022-08-01T00:20:57;2.20;;;2.20;;
27802;SDS011;15182;48.174;11.562;2022-08-01T00:23:30;2.30;;;2.20;;
27802;SDS011;15182;48.174;11.562;2022-08-01T00:26:01;2.45;;;2.35;;
27802;SDS011;15182;48.174;11.562;2022-08-01T00:28:33;2.60;;;2.40;;
27802;SDS011;15182;48.174;11.562;2022-08-01T00:31:04;2.35;;;2.20;;
27802;SDS011;15182;48.174;11.562;2022-08-01T00:33:36;2.17;;;2.08;;
27802;SDS011;15182;48.174;11.562;2022-08-01T00:36:07;2.17;;;2.17;;
27802;SDS011;15182;48.174;11.562;2022-08-01T00:38:39;2.28;;;2.28;;
27802;SDS011;15182;48.174;11.562;2022-08-01T00:41:11;2.28;;;2.28;;
27802;SDS011;15182;48.174;11.562;2022-08-01T00:43:42;2.40;;;2.30;;
27802;SDS011;15182;48.174;11.562;2022-08-01T00:46:14;2.40;;;1.83;;
27802;SDS011;15182;48.174;11.562;2022-08-01T00:48:45;2.20;;;2.20;;
27802;SDS011;15182;48.174;11.562;2022-08-01T00:51:17;2.13;;;2.10;;
27802;SDS011;15182;48.174;11.562;2022-08-01T00:53:50;2.50;;;2.30;;
27802;SDS011;15182;48.174;11.562;2022-08-01T00:56:23;2.13;;;2.13;;
27802;SDS011;15182;48.174;11.562;2022-08-01T00:58:56;1.95;;;1.95;;
27802;SDS011;15182;48.174;11.562;2022-08-01T01:01:28;2.20;;;2.20;;
27802;SDS011;15182;48.174;11.562;2022-08-01T01:04:00;2.00;;;2.00;;
27802;SDS011;15182;48.174;11.562;2022-08-01T01:06:35;2.17;;;2.17;;
27802;SDS011;15182;48.174;11.562;2022-08-01T01:09:17;3.03;;;2.13;;
27802;SDS011;15182;48.174;11.562;2022-08-01T01:11:57;2.20;;;2.20;;
27802;SDS011;15182;48.174;11.562;2022-08-01T01:14:37;2.30;;;2.30;;
27802;SDS011;15182;48.174;11.562;2022-08-01T01:17:16;2.38;;;2.20;;
27802;SDS011;15182;48.174;11.562;2022-08-01T01:19:52;2.20;;;2.20;;
27802;SDS011;15182;48.174;11.562;2022-08-01T01:22:40;2.30;;;2.22;;
27802;SDS011;15182;48.174;11.562;2022-08-01T01:25:26;2.13;;;2.10;;
27802;SDS011;15182;48.174;11.562;2022-08-01T01:28:23;2.30;;;2.20;;
27802;SDS011;15182;48.174;11.562;2022-08-01T01:31:08;2.25;;;2.17;;
27802;SDS011;15182;48.174;11.562;2022-08-01T01:33:42;2.33;;;2.33;;
27802;SDS011;15182;48.174;11.562;2022-08-01T01:36:14;3.03;;;2.17;;
27802;SDS011;15182;48.174;11.562;2022-08-01T01:38:48;2.28;;;2.28;;
27802;SDS011;15182;48.174;11.562;2022-08-01T01:41:22;2.03;;;2.03;;
27802;SDS011;15182;48.174;11.562;2022-08-01T01:43:54;2.53;;;2.40;;
27802;SDS011;15182;48.174;11.562;2022-08-01T01:46:29;2.20;;;2.20;;
27802;SDS011;15182;48.174;11.562;2022-08-01T01:49:03;2.42;;;2.22;;
27802;SDS011;15182;48.174;11.562;2022-08-01T01:51:36;3.67;;;2.28;;
27802;SDS011;15182;48.174;11.562;2022-08-01T01:54:11;2.30;;;2.30;;
27802;SDS011;15182;48.174;11.562;2022-08-01T01:56:42;2.45;;;2.35;;
27802;SDS011;15182;48.174;11.562;2022-08-01T01:59:18;2.40;;;2.30;;
27802;SDS011;15182;48.174;11.562;2022-08-01T02:01:58;2.53;;;2.13;;
27802;SDS011;15182;48.174;11.562;2022-08-01T02:04:34;2.15;;;2.15;;
27802;SDS011;15182;48.174;11.562;2022-08-01T02:07:10;2.17;;;2.17;;
27802;SDS011;15182;48.174;11.562;2022-08-01T02:09:46;2.42;;;2.33;;
27802;SDS011;15182;48.174;11.562;2022-08-01T02:12:18;2.20;;;2.20;;
27802;SDS011;15182;48.174;11.562;2022-08-01T02:14:50;2.38;;;2.38;;
27802;SDS011;15182;48.174;11.562;2022-08-01T02:17:26;2.30;;;2.30;;
27802;SDS011;15182;48.174;11.562;2022-08-01T02:19:59;2.30;;;2.20;;
27802;SDS011;15182;48.174;11.562;2022-08-01T02:22:31;2.47;;;2.47;;
27802;SDS011;15182;48.174;11.562;2022-08-01T02:25:09;2.35;;;2.35;;
27802;SDS011;15182;48.174;11.562;2022-08-01T02:27:45;2.47;;;2.47;;
27802;SDS011;15182;48.174;11.562;2022-08-01T02:30:21;2.67;;;2.47;;
27802;SDS011;15182;48.174;11.562;2022-08-01T02:33:02;2.22;;;2.22;;
27802;SDS011;15182;48.174;11.562;2022-08-01T02:35:37;2.05;;;2.05;;
27802;SDS011;15182;48.174;11.562;2022-08-01T02:38:11;2.30;;;2.30;;
27802;SDS011;15182;48.174;11.562;2022-08-01T02:40:45;2.30;;;2.22;;
27802;SDS011;15182;48.174;11.562;2022-08-01T02:43:20;2.17;;;2.08;;
27802;SDS011;15182;48.174;11.562;2022-08-01T02:48:21;3.15;;;2.20;;
27802;SDS011;15182;48.174;11.562;2022-08-01T02:50:57;1.95;;;1.95;;
27802;SDS011;15182;48.174;11.562;2022-08-01T02:53:31;2.25;;;2.20;;
27802;SDS011;15182;48.174;11.562;2022-08-01T02:56:05;1.85;;;1.85;;
27802;SDS011;15182;48.174;11.562;2022-08-01T02:58:39;2.30;;;2.28;;
27802;SDS011;15182;48.174;11.562;2022-08-01T03:01:13;2.65;;;2.55;;
27802;SDS011;15182;48.174;11.562;2022-08-01T03:03:47;2.42;;;2.22;;
27802;SDS011;15182;48.174;11.562;2022-08-01T03:06:19;2.47;;;2.25;;
27802;SDS011;15182;48.174;11.562;2022-08-01T03:08:52;2.20;;;2.20;;
27802;SDS011;15182;48.174;11.562;2022-08-01T03:11:26;2.20;;;2.10;;
27802;SDS011;15182;48.174;11.562;2022-08-01T03:14:00;2.10;;;2.10;;
27802;SDS011;15182;48.174;11.562;2022-08-01T03:16:36;2.38;;;2.17;;
27802;SDS011;15182;48.174;11.562;2022-08-01T03:19:13;2.42;;;2.33;;
27802;SDS011;15182;48.174;11.562;2022-08-01T03:21:45;4.55;;;2.15;;
27802;SDS011;15182;48.174;11.562;2022-08-01T03:24:19;2.45;;;2.40;;
27802;SDS011;15182;48.174;11.562;2022-08-01T03:26:52;2.30;;;2.30;;
27802;SDS011;15182;48.174;11.562;2022-08-01T03:29:27;2.38;;;2.28;;
27802;SDS011;15182;48.174;11.562;2022-08-01T03:32:01;2.65;;;2.55;;
27802;SDS011;15182;48.174;11.562;2022-08-01T03:34:36;2.10;;;2.10;;
27802;SDS011;15182;48.174;11.562;2022-08-01T03:37:09;2.10;;;2.10;;
27802;SDS011;15182;48.174;11.562;2022-08-01T03:39:48;2.30;;;2.30;;
27802;SDS011;15182;48.174;11.562;2022-08-01T03:42:25;2.50;;;2.40;;
27802;SDS011;15182;48.174;11.562;2022-08-01T03:45:04;2.60;;;2.50;;
27802;SDS011;15182;48.174;11.562;2022-08-01T03:47:38;2.28;;;2.28;;
27802;SDS011;15182;48.174;11.562;2022-08-01T03:50:17;3.08;;;2.50;;
27802;SDS011;15182;48.174;11.562;2022-08-01T03:52:52;2.60;;;2.45;;
27802;SDS011;15182;48.174;11.562;2022-08-01T03:55:27;2.15;;;2.15;;
27802;SDS011;15182;48.174;11.562;2022-08-01T03:57:59;2.40;;;2.40;;
27802;SDS011;15182;48.174;11.562;2022-08-01T04:00:32;2.10;;;2.00;;
27802;SDS011;15182;48.174;11.562;2022-08-01T04:03:05;2.63;;;2.53;;
27802;SDS011;15182;48.174;11.562;2022-08-01T04:05:41;2.20;;;2.17;;
27802;SDS011;15182;48.174;11.562;2022-08-01T04:08:12;4.05;;;2.47;;
27802;SDS011;15182;48.174;11.562;2022-08-01T04:10:46;2.40;;;2.40;;
27802;SDS011;15182;48.174;11.562;2022-08-01T04:13:17;2.30;;;2.20;;
27802;SDS011;15182;48.174;11.562;2022-08-01T04:15:48;2.13;;;2.13;;
27802;SDS011;15182;48.174;11.562;2022-08-01T04:18:20;4.68;;;2.40;;
27802;SDS011;15182;48.174;11.562;2022-08-01T04:20:52;2.40;;;2.30;;
27802;SDS011;15182;48.174;11.562;2022-08-01T04:23:24;2.60;;;2.60;;
27802;SDS011;15182;48.174;11.562;2022-08-01T04:25:59;2.20;;;2.20;;
27802;SDS011;15182;48.174;11.562;2022-08-01T04:28:33;2.40;;;2.30;;
27802;SDS011;15182;48.174;11.562;2022-08-01T04:31:06;2.72;;;2.60;;
27802;SDS011;15182;48.174;11.562;2022-08-01T04:33:40;2.13;;;2.13;;
27802;SDS011;15182;48.174;11.562;2022-08-01T04:36:19;2.42;;;2.42;;
27802;SDS011;15182;48.174;11.562;2022-08-01T04:38:54;2.25;;;2.15;;
27802;SDS011;15182;48.174;11.562;2022-08-01T04:41:30;4.53;;;2.45;;
27802;SDS011;15182;48.174;11.562;2022-08-01T04:44:02;2.50;;;2.40;;
27802;SDS011;15182;48.174;11.562;2022-08-01T04:46:33;2.30;;;2.13;;
27802;SDS011;15182;48.174;11.562;2022-08-01T04:49:06;2.63;;;2.22;;
27802;SDS011;15182;48.174;11.562;2022-08-01T04:51:53;2.28;;;2.17;;
27802;SDS011;15182;48.174;11.562;2022-08-01T04:54:26;2.40;;;2.28;;
27802;SDS011;15182;48.174;11.562;2022-08-01T04:57:01;2.25;;;2.25;;
27802;SDS011;15182;48.174;11.562;2022-08-01T04:59:35;2.40;;;2.40;;
27802;SDS011;15182;48.174;11.562;2022-08-01T05:02:12;2.35;;;2.35;;
27802;SDS011;15182;48.174;11.562;2022-08-01T05:04:45;4.88;;;2.13;;
27802;SDS011;15182;48.174;11.562;2022-08-01T05:07:19;2.20;;;2.20;;
27802;SDS011;15182;48.174;11.562;2022-08-01T05:09:51;2.38;;;2.38;;
27802;SDS011;15182;48.174;11.562;2022-08-01T05:12:24;2.83;;;2.30;;
27802;SDS011;15182;48.174;11.562;2022-08-01T05:14:57;2.03;;;2.03;;
27802;SDS011;15182;48.174;11.562;2022-08-01T05:17:28;2.47;;;2.38;;
27802;SDS011;15182;48.174;11.562;2022-08-01T05:19:59;2.80;;;2.70;;
27802;SDS011;15182;48.174;11.562;2022-08-01T05:22:34;2.70;;;2.60;;
27802;SDS011;15182;48.174;11.562;2022-08-01T05:25:05;2.45;;;2.35;;
27802;SDS011;15182;48.174;11.562;2022-08-01T05:27:39;2.55;;;2.35;;
27802;SDS011;15182;48.174;11.562;2022-08-01T05:30:15;3.22;;;2.53;;
27802;SDS011;15182;48.174;11.562;2022-08-01T05:32:48;2.33;;;2.33;;
27802;SDS011;15182;48.174;11.562;2022-08-01T05:35:22;2.63;;;2.53;;
27802;SDS011;15182;48.174;11.562;2022-08-01T05:37:54;3.13;;;2.40;;
27802;SDS011;15182;48.174;11.562;2022-08-01T05:40:27;2.63;;;2.25;;
27802;SDS011;15182;48.174;11.562;2022-08-01T05:42:58;4.10;;;2.50;;
27802;SDS011;15182;48.174;11.562;2022-08-01T05:45:30;2.35;;;2.20;;
27802;SDS011;15182;48.174;11.562;2022-08-01T05:48:01;3.38;;;2.30;;
27802;SDS011;15182;48.174;11.562;2022-08-01T05:50:32;2.22;;;2.10;;
27802;SDS011;15182;48.174;11.562;2022-08-01T05:53:05;2.15;;;2.15;;
27802;SDS011;15182;48.174;11.562;2022-08-01T05:55:36;2.55;;;2.40;;
27802;SDS011;15182;48.174;11.562;2022-08-01T05:58:10;2.30;;;2.30;;
27802;SDS011;15182;48.174;11.562;2022-08-01T06:00:43;2.55;;;2.47;;
27802;SDS011;15182;48.174;11.562;2022-08-01T06:03:16;2.22;;;2.22;;
27802;SDS011;15182;48.174;11.562;2022-08-01T06:05:49;3.80;;;2.80;;
27802;SDS011;15182;48.174;11.562;2022-08-01T06:08:23;2.42;;;2.28;;
27802;SDS011;15182;48.174;11.562;2022-08-01T06:10:54;2.65;;;2.55;;
27802;SDS011;15182;48.174;11.562;2022-08-01T06:13:26;2.55;;;2.45;;
27802;SDS011;15182;48.174;11.562;2022-08-01T06:15:57;2.28;;;2.20;;
27802;SDS011;15182;48.174;11.562;2022-08-01T06:18:28;2.45;;;2.35;;
27802;SDS011;15182;48.174;11.562;2022-08-01T06:21:00;3.53;;;2.40;;
27802;SDS011;15182;48.174;11.562;2022-08-01T06:23:32;2.55;;;2.40;;
27802;SDS011;15182;48.174;11.562;2022-08-01T06:26:06;2.47;;;2.47;;
27802;SDS011;15182;48.174;11.562;2022-08-01T06:28:38;2.67;;;2.10;;
27802;SDS011;15182;48.174;11.562;2022-08-01T06:31:09;2.75;;;2.55;;
27802;SDS011;15182;48.174;11.562;2022-08-01T06:33:42;6.18;;;2.58;;
27802;SDS011;15182;48.174;11.562;2022-08-01T06:36:15;2.53;;;2.53;;
27802;SDS011;15182;48.174;11.562;2022-08-01T06:38:47;3.10;;;2.30;;
27802;SDS011;15182;48.174;11.562;2022-08-01T06:41:21;2.78;;;2.67;;
27802;SDS011;15182;48.174;11.562;2022-08-01T06:43:52;2.63;;;2.60;;
27802;SDS011;15182;48.174;11.562;2022-08-01T06:46:27;2.40;;;2.38;;
27802;SDS011;15182;48.174;11.562;2022-08-01T06:48:58;2.60;;;2.50;;
27802;SDS011;15182;48.174;11.562;2022-08-01T06:51:31;2.50;;;2.40;;
27802;SDS011;15182;48.174;11.562;2022-08-01T06:54:04;3.00;;;2.50;;
27802;SDS011;15182;48.174;11.562;2022-08-01T06:56:37;2.80;;;2.65;;
27802;SDS011;15182;48.174;11.562;2022-08-01T06:59:10;2.58;;;2.58;;
27802;SDS011;15182;48.174;11.562;2022-08-01T07:01:44;2.63;;;2.53;;
27802;SDS011;15182;48.174;11.562;2022-08-01T07:04:17;2.58;;;2.47;;
27802;SDS011;15182;48.174;11.562;2022-08-01T07:06:50;5.32;;;2.70;;
27802;SDS011;15182;48.174;11.562;2022-08-01T07:09:22;2.70;;;2.60;;
27802;SDS011;15182;48.174;11.562;2022-08-01T07:11:56;2.72;;;2.63;;
27802;SDS011;15182;48.174;11.562;2022-08-01T07:14:27;2.78;;;2.50;;
27802;SDS011;15182;48.174;11.562;2022-08-01T07:17:00;2.83;;;2.60;;
27802;SDS011;15182;48.174;11.562;2022-08-01T07:19:31;3.33;;;3.13;;
27802;SDS011;15182;48.174;11.562;2022-08-01T07:22:02;2.63;;;2.63;;
27802;SDS011;15182;48.174;11.562;2022-08-01T07:24:35;3.33;;;2.92;;
27802;SDS011;15182;48.174;11.562;2022-08-01T07:27:07;4.28;;;2.85;;
27802;SDS011;15182;48.174;11.562;2022-08-01T07:29:38;5.55;;;2.92;;
27802;SDS011;15182;48.174;11.562;2022-08-01T07:32:10;2.70;;;2.60;;
27802;SDS011;15182;48.174;11.562;2022-08-01T07:34:41;3.03;;;2.92;;
27802;SDS011;15182;48.174;11.562;2022-08-01T07:37:12;2.90;;;2.80;;
27802;SDS011;15182;48.174;11.562;2022-08-01T07:39:45;3.90;;;3.05;;
27802;SDS011;15182;48.174;11.562;2022-08-01T07:42:16;2.85;;;2.75;;
27802;SDS011;15182;48.174;11.562;2022-08-01T07:44:48;3.00;;;2.90;;
27802;SDS011;15182;48.174;11.562;2022-08-01T07:47:23;3.08;;;2.88;;
27802;SDS011;15182;48.174;11.562;2022-08-01T07:49:58;2.80;;;2.80;;
27802;SDS011;15182;48.174;11.562;2022-08-01T07:52:32;3.10;;;3.00;;
27802;SDS011;15182;48.174;11.562;2022-08-01T07:55:05;2.90;;;2.90;;
27802;SDS011;15182;48.174;11.562;2022-08-01T07:57:39;2.70;;;2.60;;
27802;SDS011;15182;48.174;11.562;2022-08-01T08:00:11;2.85;;;2.75;;
27802;SDS011;15182;48.174;11.562;2022-08-01T08:02:44;2.80;;;2.70;;
27802;SDS011;15182;48.174;11.562;2022-08-01T08:05:15;2.70;;;2.60;;
27802;SDS011;15182;48.174;11.562;2022-08-01T08:07:47;3.25;;;3.15;;
27802;SDS011;15182;48.174;11.562;2022-08-01T08:10:19;2.80;;;2.75;;
27802;SDS011;15182;48.174;11.562;2022-08-01T08:12:51;2.88;;;2.83;;
27802;SDS011;15182;48.174;11.562;2022-08-01T08:15:22;2.90;;;2.80;;
27802;SDS011;15182;48.174;11.562;2022-08-01T08:17:53;2.65;;;2.60;;
27802;SDS011;15182;48.174;11.562;2022-08-01T08:20:25;3.00;;;3.00;;
27802;SDS011;15182;48.174;11.562;2022-08-01T08:22:56;2.67;;;2.65;;
27802;SDS011;15182;48.174;11.562;2022-08-01T08:25:50;2.45;;;2.40;;
27802;SDS011;15182;48.174;11.562;2022-08-01T08:28:22;2.63;;;2.53;;
27802;SDS011;15182;48.174;11.562;2022-08-01T08:30:54;3.20;;;3.10;;
27802;SDS011;15182;48.174;11.562;2022-08-01T08:33:25;2.60;;;2.60;;
27802;SDS011;15182;48.174;11.562;2022-08-01T08:35:56;2.67;;;2.47;;
27802;SDS011;15182;48.174;11.562;2022-08-01T08:38:27;2.65;;;2.55;;
27802;SDS011;15182;48.174;11.562;2022-08-01T08:41:00;2.60;;;2.50;;
27802;SDS011;15182;48.174;11.562;2022-08-01T08:43:31;3.15;;;3.05;;
27802;SDS011;15182;48.174;11.562;2022-08-01T08:46:05;2.75;;;2.55;;
27802;SDS011;15182;48.174;11.562;2022-08-01T08:48:40;3.13;;;2.90;;
27802;SDS011;15182;48.174;11.562;2022-08-01T08:51:13;4.75;;;2.35;;
27802;SDS011;15182;48.174;11.562;2022-08-01T08:53:47;3.05;;;2.85;;
27802;SDS011;15182;48.174;11.562;2022-08-01T08:56:21;2.58;;;2.58;;
27802;SDS011;15182;48.174;11.562;2022-08-01T08:58:59;2.75;;;2.60;;
27802;SDS011;15182;48.174;11.562;2022-08-01T09:01:31;2.70;;;2.60;;
27802;SDS011;15182;48.174;11.562;2022-08-01T09:04:03;3.00;;;2.50;;
27802;SDS011;15182;48.174;11.562;2022-08-01T09:06:34;2.33;;;2.33;;
27802;SDS011;15182;48.174;11.562;2022-08-01T09:09:07;2.58;;;2.38;;
27802;SDS011;15182;48.174;11.562;2022-08-01T09:11:40;3.42;;;2.72;;
27802;SDS011;15182;48.174;11.562;2022-08-01T09:14:14;2.58;;;2.33;;
27802;SDS011;15182;48.174;11.562;2022-08-01T09:16:59;2.72;;;2.53;;
27802;SDS011;15182;48.174;11.562;2022-08-01T09:19:35;2.30;;;2.30;;
27802;SDS011;15182;48.174;11.562;2022-08-01T09:22:10;2.30;;;2.25;;
27802;SDS011;15182;48.174;11.562;2022-08-01T09:24:59;2.00;;;2.00;;
27802;SDS011;15182;48.174;11.562;2022-08-01T09:27:36;1.98;;;1.98;;
27802;SDS011;15182;48.174;11.562;2022-08-01T09:30:09;2.13;;;2.13;;
27802;SDS011;15182;48.174;11.562;2022-08-01T09:32:54;2.55;;;2.53;;
27802;SDS011;15182;48.174;11.562;2022-08-01T09:35:26;1.88;;;1.88;;
27802;SDS011;15182;48.174;11.562;2022-08-01T09:38:11;2.28;;;2.25;;
27802;SDS011;15182;48.174;11.562;2022-08-01T09:40:44;3.53;;;2.38;;
27802;SDS011;15182;48.174;11.562;2022-08-01T09:43:17;2.22;;;2.15;;
27802;SDS011;15182;48.174;11.562;2022-08-01T09:45:52;2.35;;;2.30;;
27802;SDS011;15182;48.174;11.562;2022-08-01T09:48:26;2.00;;;2.00;;
27802;SDS011;15182;48.174;11.562;2022-08-01T09:50:59;2.17;;;2.08;;
27802;SDS011;15182;48.174;11.562;2022-08-01T09:53:39;1.80;;;1.80;;
27802;SDS011;15182;48.174;11.562;2022-08-01T09:56:11;1.90;;;1.88;;
27802;SDS011;15182;48.174;11.562;2022-08-01T09:58:50;2.72;;;2.13;;
27802;SDS011;15182;48.174;11.562;2022-08-01T10:01:25;1.73;;;1.73;;
27802;SDS011;15182;48.174;11.562;2022-08-01T10:04:09;2.22;;;2.00;;
27802;SDS011;15182;48.174;11.562;2022-08-01T10:06:43;2.10;;;2.10;;
27802;SDS011;15182;48.174;11.562;2022-08-01T10:09:26;2.38;;;1.80;;
27802;SDS011;15182;48.174;11.562;2022-08-01T10:12:00;2.50;;;1.88;;
27802;SDS011;15182;48.174;11.562;2022-08-01T10:14:34;2.05;;;2.05;;
27802;SDS011;15182;48.174;11.562;2022-08-01T10:17:10;2.15;;;2.05;;
27802;SDS011;15182;48.174;11.562;2022-08-01T10:19:46;2.10;;;1.98;;
27802;SDS011;15182;48.174;11.562;2022-08-01T10:22:21;2.10;;;2.10;;
27802;SDS011;15182;48.174;11.562;2022-08-01T10:24:55;1.90;;;1.80;;
27802;SDS011;15182;48.174;11.562;2022-08-01T10:27:32;2.45;;;1.77;;
27802;SDS011;15182;48.174;11.562;2022-08-01T10:30:08;1.92;;;1.92;;
27802;SDS011;15182;48.174;11.562;2022-08-01T10:32:41;1.75;;;1.75;;
27802;SDS011;15182;48.174;11.562;2022-08-01T10:35:16;1.73;;;1.73;;
27802;SDS011;15182;48.174;11.562;2022-08-01T10:37:48;1.60;;;1.60;;
27802;SDS011;15182;48.174;11.562;2022-08-01T10:40:23;1.85;;;1.85;;
27802;SDS011;15182;48.174;11.562;2022-08-01T10:42:55;1.88;;;1.75;;
27802;SDS011;15182;48.174;11.562;2022-08-01T10:45:28;1.80;;;1.80;;
27802;SDS011;15182;48.174;11.562;2022-08-01T10:48:02;1.75;;;1.70;;
27802;SDS011;15182;48.174;11.562;2022-08-01T10:50:40;1.60;;;1.60;;
27802;SDS011;15182;48.174;11.562;2022-08-01T10:53:15;1.70;;;1.70;;
27802;SDS011;15182;48.174;11.562;2022-08-01T10:55:50;1.60;;;1.50;;
27802;SDS011;15182;48.174;11.562;2022-08-01T10:58:28;1.58;;;1.58;;
27802;SDS011;15182;48.174;11.562;2022-08-01T11:01:14;1.50;;;1.50;;
27802;SDS011;15182;48.174;11.562;2022-08-01T11:03:58;2.65;;;1.60;;
27802;SDS011;15182;48.174;11.562;2022-08-01T11:06:43;1.60;;;1.60;;
27802;SDS011;15182;48.174;11.562;2022-08-01T11:09:30;1.83;;;1.73;;
27802;SDS011;15182;48.174;11.562;2022-08-01T11:12:09;1.73;;;1.73;;
27802;SDS011;15182;48.174;11.562;2022-08-01T11:17:53;1.52;;;1.48;;
27802;SDS011;15182;48.174;11.562;2022-08-01T11:20:25;2.58;;;1.50;;
27802;SDS011;15182;48.174;11.562;2022-08-01T11:31:44;1.58;;;1.58;;
27802;SDS011;15182;48.174;11.562;2022-08-01T11:34:17;1.50;;;1.50;;
27802;SDS011;15182;48.174;11.562;2022-08-01T11:37:24;1.58;;;1.48;;
27802;SDS011;15182;48.174;11.562;2022-08-01T11:40:16;2.33;;;1.40;;
27802;SDS011;15182;48.174;11.562;2022-08-01T11:43:16;1.60;;;1.50;;
27802;SDS011;15182;48.174;11.562;2022-08-01T11:45:50;1.58;;;1.58;;
27802;SDS011;15182;48.174;11.562;2022-08-01T11:48:24;1.48;;;1.40;;
27802;SDS011;15182;48.174;11.562;2022-08-01T11:50:57;1.20;;;1.20;;
27802;SDS011;15182;48.174;11.562;2022-08-01T11:53:29;1.52;;;1.52;;
27802;SDS011;15182;48.174;11.562;2022-08-01T11:56:03;4.28;;;1.60;;
27802;SDS011;15182;48.174;11.562;2022-08-01T11:58:34;1.30;;;1.30;;
27802;SDS011;15182;48.174;11.562;2022-08-01T12:01:06;1.50;;;1.42;;
27802;SDS011;15182;48.174;11.562;2022-08-01T12:03:42;1.40;;;1.40;;
27802;SDS011;15182;48.174;11.562;2022-08-01T12:06:27;1.30;;;1.30;;
27802;SDS011;15182;48.174;11.562;2022-08-01T12:09:14;3.60;;;1.50;;
27802;SDS011;15182;48.174;11.562;2022-08-01T12:11:49;1.80;;;1.70;;
27802;SDS011;15182;48.174;11.562;2022-08-01T12:14:21;1.40;;;1.40;;
27802;SDS011;15182;48.174;11.562;2022-08-01T12:16:52;1.30;;;1.30;;
27802;SDS011;15182;48.174;11.562;2022-08-01T12:19:24;1.38;;;1.38;;
27802;SDS011;15182;48.174;11.562;2022-08-01T12:22:07;1.20;;;1.17;;
27802;SDS011;15182;48.174;11.562;2022-08-01T12:24:40;2.28;;;1.33;;
27802;SDS011;15182;48.174;11.562;2022-08-01T12:27:12;1.20;;;1.20;;
27802;SDS011;15182;48.174;11.562;2022-08-01T12:29:54;1.40;;;1.40;;
27802;SDS011;15182;48.174;11.562;2022-08-01T12:32:27;2.58;;;1.45;;
27802;SDS011;15182;48.174;11.562;2022-08-01T12:35:02;1.30;;;1.30;;
27802;SDS011;15182;48.174;11.562;2022-08-01T12:37:37;5.07;;;1.27;;
27802;SDS011;15182;48.174;11.562;2022-08-01T12:40:12;0.98;;;0.98;;
27802;SDS011;15182;48.174;11.562;2022-08-01T12:42:48;1.25;;;1.20;;
27802;SDS011;15182;48.174;11.562;2022-08-01T12:45:21;1.35;;;1.20;;
27802;SDS011;15182;48.174;11.562;2022-08-01T12:47:57;1.25;;;1.25;;
27802;SDS011;15182;48.174;11.562;2022-08-01T12:50:32;1.20;;;1.20;;
27802;SDS011;15182;48.174;11.562;2022-08-01T12:53:08;1.20;;;1.20;;
27802;SDS011;15182;48.174;11.562;2022-08-01T12:55:44;1.35;;;1.20;;
27802;SDS011;15182;48.174;11.562;2022-08-01T12:58:19;1.38;;;1.38;;
27802;SDS011;15182;48.174;11.562;2022-08-01T13:01:01;1.00;;;1.00;;
27802;SDS011;15182;48.174;11.562;2022-08-01T13:03:35;1.63;;;1.30;;
27802;SDS011;15182;48.174;11.562;2022-08-01T13:06:10;1.65;;;1.10;;
27802;SDS011;15182;48.174;11.562;2022-08-01T13:08:44;1.10;;;1.10;;
27802;SDS011;15182;48.174;11.562;2022-08-01T13:11:15;1.50;;;1.50;;
27802;SDS011;15182;48.174;11.562;2022-08-01T13:13:47;1.10;;;1.00;;
27802;SDS011;15182;48.174;11.562;2022-08-01T13:16:20;1.10;;;1.10;;
27802;SDS011;15182;48.174;11.562;2022-08-01T13:18:54;2.33;;;1.30;;
27802;SDS011;15182;48.174;11.562;2022-08-01T13:21:26;1.42;;;1.35;;
27802;SDS011;15182;48.174;11.562;2022-08-01T13:24:01;1.67;;;1.25;;
27802;SDS011;15182;48.174;11.562;2022-08-01T13:26:40;2.20;;;1.40;;
27802;SDS011;15182;48.174;11.562;2022-08-01T13:29:14;1.10;;;1.10;;
27802;SDS011;15182;48.174;11.562;2022-08-01T13:31:48;3.30;;;1.25;;
27802;SDS011;15182;48.174;11.562;2022-08-01T13:34:28;2.15;;;1.30;;
27802;SDS011;15182;48.174;11.562;2022-08-01T13:37:03;1.33;;;1.33;;
27802;SDS011;15182;48.174;11.562;2022-08-01T13:39:35;1.20;;;1.20;;
27802;SDS011;15182;48.174;11.562;2022-08-01T13:42:10;1.35;;;1.30;;
27802;SDS011;15182;48.174;11.562;2022-08-01T13:44:44;1.40;;;1.40;;
27802;SDS011;15182;48.174;11.562;2022-08-01T13:47:15;5.20;;;1.13;;
27802;SDS011;15182;48.174;11.562;2022-08-01T13:49:48;0.70;;;0.70;;
27802;SDS011;15182;48.174;11.562;2022-08-01T13:52:20;1.90;;;0.82;;
27802;SDS011;15182;48.174;11.562;2022-08-01T13:54:53;0.82;;;0.63;;
27802;SDS011;15182;48.174;11.562;2022-08-01T13:57:24;0.85;;;0.85;;
27802;SDS011;15182;48.174;11.562;2022-08-01T13:59:57;1.55;;;1.00;;
27802;SDS011;15182;48.174;11.562;2022-08-01T14:02:37;0.80;;;0.80;;
27802;SDS011;15182;48.174;11.562;2022-08-01T14:05:09;0.80;;;0.80;;
27802;SDS011;15182;48.174;11.562;2022-08-01T14:07:40;0.82;;;0.82;;
27802;SDS011;15182;48.174;11.562;2022-08-01T14:10:13;0.75;;;0.75;;
27802;SDS011;15182;48.174;11.562;2022-08-01T14:12:44;0.82;;;0.82;;
27802;SDS011;15182;48.174;11.562;2022-08-01T14:15:15;1.00;;;1.00;;
27802;SDS011;15182;48.174;11.562;2022-08-01T14:17:47;0.75;;;0.75;;
27802;SDS011;15182;48.174;11.562;2022-08-01T14:20:18;1.00;;;1.00;;
27802;SDS011;15182;48.174;11.562;2022-08-01T14:22:50;3.30;;;1.20;;
27802;SDS011;15182;48.174;11.562;2022-08-01T14:25:22;0.80;;;0.80;;
27802;SDS011;15182;48.174;11.562;2022-08-01T14:27:54;1.00;;;1.00;;
27802;SDS011;15182;48.174;11.562;2022-08-01T14:30:25;1.15;;;1.15;;
27802;SDS011;15182;48.174;11.562;2022-08-01T14:32:57;1.10;;;1.10;;
27802;SDS011;15182;48.174;11.562;2022-08-01T14:35:29;1.20;;;1.20;;
27802;SDS011;15182;48.174;11.562;2022-08-01T14:38:00;1.08;;;1.08;;
27802;SDS011;15182;48.174;11.562;2022-08-01T14:40:32;1.13;;;1.13;;
27802;SDS011;15182;48.174;11.562;2022-08-01T14:43:06;1.35;;;1.35;;
27802;SDS011;15182;48.174;11.562;2022-08-01T14:45:37;1.85;;;1.30;;
27802;SDS011;15182;48.174;11.562;2022-08-01T14:48:08;1.63;;;1.55;;
27802;SDS011;15182;48.174;11.562;2022-08-01T14:50:39;2.33;;;1.20;;
27802;SDS011;15182;48.174;11.562;2022-08-01T14:53:11;1.38;;;1.30;;
27802;SDS011;15182;48.174;11.562;2022-08-01T14:55:44;1.67;;;1.60;;
27802;SDS011;15182;48.174;11.562;2022-08-01T14:58:15;7.88;;;1.70;;
27802;SDS011;15182;48.174;11.562;2022-08-01T15:00:47;2.38;;;1.48;;
27802;SDS011;15182;48.174;11.562;2022-08-01T15:03:20;2.08;;;1.65;;
27802;SDS011;15182;48.174;11.562;2022-08-01T15:05:51;2.35;;;1.75;;
27802;SDS011;15182;48.174;11.562;2022-08-01T15:08:22;1.63;;;1.63;;
27802;SDS011;15182;48.174;11.562;2022-08-01T15:10:54;1.60;;;1.60;;
27802;SDS011;15182;48.174;11.562;2022-08-01T15:13:27;1.27;;;1.27;;
27802;SDS011;15182;48.174;11.562;2022-08-01T15:15:59;2.47;;;1.42;;
27802;SDS011;15182;48.174;11.562;2022-08-01T15:18:30;1.80;;;1.80;;
27802;SDS011;15182;48.174;11.562;2022-08-01T15:21:01;1.67;;;1.50;;
27802;SDS011;15182;48.174;11.562;2022-08-01T15:23:33;1.67;;;1.65;;
27802;SDS011;15182;48.174;11.562;2022-08-01T15:26:05;2.03;;;1.92;;
27802;SDS011;15182;48.174;11.562;2022-08-01T15:28:39;4.15;;;2.10;;